METAR stanice u blizini

 

LYBE - Beograd / Surčin, Srbija
Ažurirano: 01/12/2021 01:00
Vedro
Vedro
 Pravac vetra ZJZ
Vetar: ZJZ 17 km/h
Temperatura: 4°C
Osećaj hladnoće: 0°C
Tačka rose: -3°C
Vlažnost: 61%
Pritisak: 1011 hPa
Pregled: Vedro
Vidljivost: greater than 10 km
2021/12/01 00:00 LYBE 010000Z 24009KT CAVOK 04/M03 Q1011 NOSIG
LYBT - Beograd / Batajnica, Srbija
Ažurirano: 01/12/2021 01:00
Vedro
Vedro
 Pravac vetra JZ
Vetar: JZ 7 km/h
Temperatura: 2°C
Osećaj hladnoće: 0°C
Tačka rose: -1°C
Vlažnost: 81%
Pritisak: 1011 hPa
Pregled: Vedro
Vidljivost: greater than 10 km
2021/12/01 00:00 LYBT 010000Z 23004KT CAVOK 02/M01 Q1011 NOSIG
LYVR - Vršac, Srbija
Ažurirano: 01/12/2021 01:00
Oblačno
Oblačno
 Pravac vetra J
Vetar: J 15 km/h, Maks.: 33 km/h
Temperatura: 4°C
Osećaj hladnoće: 1°C
Tačka rose: -4°C
Vlažnost: 56%
Pritisak: 1010 hPa
Oblaci: Oblačno
Vidljivost: 10 km
Cloud details: Mostly Cloudy 1280 m
Oblačno 1707 m
2021/12/01 00:00 LYVR 010000Z AUTO 18008G18KT 9999 BKN042/// OVC056/// 04/M04 Q1010
 
LYKV - Lađevci, Srbija
Ažurirano: 01/12/2021 01:00
Vedro
Vedro
 Pravac vetra varies
Vetar: varies 4 km/h
Temperatura: -1°C
Tačka rose: -3°C
Vlažnost: 86%
Pritisak: 1013 hPa
Pregled: Vedro
Vidljivost: greater than 10 km
2021/12/01 00:00 LYKV 010000Z VRB02KT CAVOK M01/M03 Q1013 NOSIG
LYNI - Niš, Srbija
Ažurirano: 01/12/2021 01:00
Vedro
Vedro
 Pravac vetra varies
Vetar: varies 4 km/h
Temperatura: -1°C
Tačka rose: -4°C
Vlažnost: 80%
Pritisak: 1014 hPa
Pregled: Vedro
Vidljivost: greater than 10 km
2021/12/01 00:00 LYNI 010000Z VRB02KT CAVOK M01/M04 Q1014 NOSIG
BKPR - Priština, Srbija
Ažurirano: 01/12/2021 01:30
Mostly Cloudy
Mostly Cloudy
 Pravac vetra SSI
Vetar: SSI 11 km/h
Temperatura: -2°C
Osećaj hladnoće: -6°C
Tačka rose: -4°C
Vlažnost: 86%
Pritisak: 1014 hPa
Oblaci: Mostly Cloudy
Vidljivost: 10 km
Cloud details: Mostly Cloudy 2743 m
2021/12/01 00:30 BKPR 010030Z 02006KT 340V050 9999 BKN090 M02/M04 Q1014 NOSIG
 
LHPP - Pecs / Pogany, Hungary
Ažurirano: 01/12/2021 00:45
Vedro
Vedro
 Pravac vetra Z
Vetar: Z 22 km/h
Temperatura: 5°C
Osećaj hladnoće: 1°C
Tačka rose: -2°C
Vlažnost: 61%
Pritisak: 1008 hPa
Pregled: Vedro
Vidljivost: greater than 10 km
2021/11/30 23:45 LHPP 302345Z AUTO 26012KT CAVOK 05/M02 Q1008
LHUD - Szeged, Hungary
Ažurirano: 04/07/2019 01:45
NOT Current
Vedro
Vedro
 Pravac vetra S
Vetar: S 7 km/h
Temperatura: 18°C
Tačka rose: 13°C
Vlažnost: 73%
Pritisak: 1019 hPa
Pregled: Vedro
Vidljivost: greater than 10 km
2019/07/03 23:45 LHUD 032345Z 35004KT CAVOK 18/13 Q1019
LRTR - Timisoara, Romania
Ažurirano: 01/12/2021 01:00
Oblačno
Oblačno
 Pravac vetra ZJZ
Vetar: ZJZ 17 km/h
Temperatura: 4°C
Osećaj hladnoće: 0°C
Tačka rose: -1°C
Vlažnost: 70%
Pritisak: 1008 hPa
Oblaci: Oblačno
Vidljivost: 10 km
Cloud details: Oblačno 914 m
2021/12/01 00:00 LRTR 010000Z 24009KT 9999 OVC030 04/M01 Q1008
 
LRCV - Craiova, Romania
Ažurirano: 01/12/2021 01:00
Vedro
Vedro
 Pravac vetra ZJZ
Vetar: ZJZ 26 km/h
Temperatura: 2°C
Osećaj hladnoće: -3°C
Tačka rose: -6°C
Vlažnost: 56%
Pritisak: 1008 hPa
Pregled: Vedro
Vidljivost: greater than 10 km
2021/12/01 00:00 LRCV 010000Z 24014KT CAVOK 02/M06 Q1008
LBSF - Sofia, Bulgaria
Ažurirano: 01/12/2021 01:00
Vedro
Vedro
 Pravac vetra varies
Vetar: varies 4 km/h
Temperatura: -5°C
Tačka rose: -7°C
Vlažnost: 86%
Pritisak: 1013 hPa
Pregled: Vedro
Vidljivost: greater than 10 km
2021/12/01 00:00 LBSF 010000Z VRB02KT CAVOK M05/M07 Q1013 NOSIG
LWSK - Skoplje, Makedonija
Ažurirano: 01/12/2021 01:00
Vedro
Vedro
 Pravac vetra calm
Vetar: Tišina
Temperatura: -4°C
Tačka rose: -5°C
Vlažnost: 93%
Pritisak: 1017 hPa
Pregled: Vedro
Vidljivost: greater than 10 km
2021/12/01 00:00 LWSK 010000Z 00000KT CAVOK M04/M05 Q1017 NOSIG
 
LYPG - Podgorica, Crna Gora
Ažurirano: 01/12/2021 01:00
Mostly Cloudy
Mostly Cloudy
 Pravac vetra varies
Vetar: varies 4 km/h
Temperatura: 4°C
Tačka rose: -3°C
Vlažnost: 61%
Pritisak: 1020 hPa
Oblaci: Mostly Cloudy
Vidljivost: 10 km
Cloud details: Mostly Cloudy 1524 m
2021/12/01 00:00 LYPG 010000Z VRB02KT 9999 BKN050 04/M03 Q1020 NOSIG
LQSA - Sarajevo, Bosna i Hercegovina
Ažurirano: 01/12/2021 01:00
Vedro
Vedro
 Pravac vetra ISI
Vetar: ISI 7 km/h
Temperatura: -2°C
Osećaj hladnoće: -6°C
Tačka rose: -2°C
Vlažnost: 100%
Pritisak: 1013 hPa
Pregled: Vedro
Vidljivost: greater than 10 km
2021/12/01 00:00 LQSA 010000Z 06004KT 340V150 CAVOK M02/M02 Q1013
LDOS - Osijek, Hrvatksa
Ažurirano: 01/12/2021 01:00
Partly Cloudy
Partly Cloudy
 Pravac vetra JZ
Vetar: JZ 13 km/h
Temperatura: 3°C
Osećaj hladnoće: -1°C
Tačka rose: 0°C
Vlažnost: 81%
Pritisak: 1009 hPa
Oblaci: Partly Cloudy
Vidljivost: 10 km
Cloud details: Partly Cloudy 1128 m
2021/12/01 00:00 LDOS 010000Z 22007KT 9999 SCT037 03/M00 Q1009